createdAt,value
2023-05-20T00:00:11.144Z,8.02
2023-05-20T00:01:11.124Z,8.52
2023-05-20T00:02:11.078Z,7.13
2023-05-20T00:03:11.152Z,8.42
2023-05-20T00:04:11.181Z,8.19
2023-05-20T00:05:11.038Z,7.21
2023-05-20T00:06:11.040Z,7.35
2023-05-20T00:07:11.019Z,7.99
2023-05-20T00:08:11.032Z,7.58
2023-05-20T00:09:11.032Z,7.62
2023-05-20T00:10:11.051Z,7.90
2023-05-20T00:11:11.008Z,7.19
2023-05-20T00:12:11.046Z,6.97
2023-05-20T00:13:10.985Z,7.51
2023-05-20T00:14:11.008Z,8.01
2023-05-20T00:15:11.026Z,7.87
2023-05-20T00:16:11.012Z,8.32
2023-05-20T00:17:10.989Z,7.22
2023-05-20T00:18:11.059Z,7.14
2023-05-20T00:19:11.025Z,8.25
2023-05-20T00:20:10.977Z,8.01
2023-05-20T00:21:11.004Z,7.68
2023-05-20T00:22:10.968Z,7.91
2023-05-20T00:23:11.002Z,8.13
2023-05-20T00:24:11.013Z,8.20
2023-05-20T00:25:11.024Z,7.90
2023-05-20T00:26:11.016Z,7.92
2023-05-20T00:27:11.022Z,7.44
2023-05-20T00:28:11.095Z,8.20
2023-05-20T00:29:11.085Z,8.34
2023-05-20T00:30:11.117Z,7.52
2023-05-20T00:31:11.109Z,8.95
2023-05-20T00:32:11.222Z,7.72
2023-05-20T00:33:11.158Z,7.80
2023-05-20T00:34:11.161Z,8.04
2023-05-20T00:35:11.252Z,7.64
2023-05-20T00:36:11.191Z,7.82
2023-05-20T00:37:11.221Z,7.03
2023-05-20T00:38:11.279Z,7.14
2023-05-20T00:39:11.269Z,8.08
2023-05-20T00:40:12.079Z,7.63
2023-05-20T00:41:11.316Z,7.45
2023-05-20T00:42:11.321Z,6.91
2023-05-20T00:43:11.362Z,7.86
2023-05-20T00:44:11.381Z,7.12
2023-05-20T00:45:11.383Z,8.41
2023-05-20T00:46:11.436Z,8.20
2023-05-20T00:47:11.434Z,7.39
2023-05-20T00:48:11.499Z,7.88
2023-05-20T00:49:11.507Z,7.60
2023-05-20T00:50:11.490Z,6.81
2023-05-20T00:51:11.526Z,8.05
2023-05-20T00:52:11.565Z,7.70
2023-05-20T00:53:13.410Z,8.02
2023-05-20T00:54:11.608Z,7.53
2023-05-20T00:55:11.613Z,7.02
2023-05-20T00:56:11.646Z,7.09
2023-05-20T00:57:11.706Z,7.76
2023-05-20T00:58:11.699Z,7.59
2023-05-20T00:59:11.697Z,7.60
2023-05-20T01:00:11.717Z,7.23
2023-05-20T01:01:11.804Z,7.07
2023-05-20T01:02:11.832Z,7.34
2023-05-20T01:03:11.845Z,7.54
2023-05-20T01:04:11.787Z,7.86
2023-05-20T01:05:11.831Z,8.11
2023-05-20T01:06:11.827Z,7.58
2023-05-20T01:07:11.863Z,7.39
2023-05-20T01:08:11.888Z,7.70
2023-05-20T01:09:11.883Z,6.96
2023-05-20T01:10:11.919Z,7.19
2023-05-20T01:11:11.942Z,6.11
2023-05-20T01:12:11.944Z,7.62
2023-05-20T01:13:11.982Z,7.38
2023-05-20T01:14:11.979Z,7.29
2023-05-20T01:15:12.022Z,6.41
2023-05-20T01:16:12.157Z,7.28
2023-05-20T01:17:12.148Z,7.61
2023-05-20T01:18:12.131Z,6.02
2023-05-20T01:19:12.174Z,7.62
2023-05-20T01:20:12.161Z,7.22
2023-05-20T01:21:12.183Z,7.65
2023-05-20T01:22:12.215Z,8.04
2023-05-20T01:23:12.226Z,7.77
2023-05-20T01:24:12.272Z,7.73
2023-05-20T01:25:12.350Z,7.37
2023-05-20T01:26:12.305Z,6.87
2023-05-20T01:27:12.337Z,6.84
2023-05-20T01:28:12.352Z,7.62
2023-05-20T01:29:12.350Z,7.16
2023-05-20T01:30:12.414Z,6.13
2023-05-20T01:31:12.483Z,7.35
2023-05-20T01:32:12.472Z,7.64
2023-05-20T01:33:12.552Z,6.84
2023-05-20T01:34:12.505Z,7.47
2023-05-20T01:35:12.506Z,6.95
2023-05-20T01:36:12.536Z,6.87
2023-05-20T01:37:12.570Z,6.57
2023-05-20T01:38:12.582Z,6.64
2023-05-20T01:39:12.616Z,7.29
2023-05-20T01:40:12.628Z,7.26
2023-05-20T01:41:12.668Z,6.78
2023-05-20T01:42:12.706Z,7.58
2023-05-20T01:43:12.704Z,6.64
2023-05-20T01:44:12.753Z,7.30
2023-05-20T01:45:12.776Z,7.04
2023-05-20T01:46:12.827Z,7.18
2023-05-20T01:47:12.808Z,6.86
2023-05-20T01:48:12.873Z,7.45
2023-05-20T01:49:12.873Z,7.36
2023-05-20T01:50:12.891Z,7.34
2023-05-20T01:51:12.914Z,7.07
2023-05-20T01:52:12.940Z,6.69
2023-05-20T01:53:12.971Z,7.22
2023-05-20T01:54:12.981Z,7.72
2023-05-20T01:55:13.042Z,6.81
2023-05-20T01:56:13.054Z,6.20
2023-05-20T01:57:13.087Z,7.29
2023-05-20T01:58:13.165Z,7.73
2023-05-20T01:59:13.141Z,7.43
2023-05-20T02:00:13.158Z,7.39
2023-05-20T02:01:13.265Z,8.09
2023-05-20T02:02:13.264Z,7.32
2023-05-20T02:03:13.433Z,6.99
2023-05-20T02:04:13.314Z,7.08
2023-05-20T02:05:13.357Z,6.78
2023-05-20T02:06:13.414Z,7.33
2023-05-20T02:07:13.437Z,6.92
2023-05-20T02:08:13.500Z,6.65
2023-05-20T02:09:13.510Z,6.86
2023-05-20T02:10:13.597Z,7.64
2023-05-20T02:11:13.562Z,6.87
2023-05-20T02:12:13.605Z,6.26
2023-05-20T02:13:13.653Z,6.92
2023-05-20T02:14:13.662Z,6.66
2023-05-20T02:15:13.753Z,7.93
2023-05-20T02:16:13.767Z,7.13
2023-05-20T02:17:13.802Z,7.07
2023-05-20T02:18:13.934Z,7.51
2023-05-20T02:19:13.932Z,7.15
2023-05-20T02:20:14.008Z,7.45
2023-05-20T02:21:13.950Z,6.91
2023-05-20T02:22:13.972Z,7.12
2023-05-20T02:23:14.047Z,6.73
2023-05-20T02:24:14.119Z,6.54
2023-05-20T02:25:14.091Z,7.18
2023-05-20T02:26:14.139Z,6.57
2023-05-20T02:27:14.154Z,7.12
2023-05-20T02:28:14.218Z,6.41
2023-05-20T02:29:14.250Z,7.39
2023-05-20T02:30:14.264Z,7.05
2023-05-20T02:31:14.308Z,7.38
2023-05-20T02:32:14.346Z,6.71
2023-05-20T02:33:14.469Z,6.43
2023-05-20T02:34:14.488Z,6.16
2023-05-20T02:35:14.471Z,6.93
2023-05-20T02:36:14.512Z,6.53
2023-05-20T02:37:14.605Z,7.63
2023-05-20T02:38:14.616Z,6.51
2023-05-20T02:39:14.654Z,6.05
2023-05-20T02:40:14.705Z,6.98
2023-05-20T02:41:14.734Z,7.00
2023-05-20T02:42:14.787Z,7.27
2023-05-20T02:43:14.881Z,7.11
2023-05-20T02:44:14.889Z,7.21
2023-05-20T02:45:14.909Z,7.79
2023-05-20T02:46:15.024Z,6.71
2023-05-20T02:47:14.976Z,7.17
2023-05-20T02:48:15.015Z,7.52
2023-05-20T02:49:15.026Z,7.37
2023-05-20T02:50:15.078Z,7.41
2023-05-20T02:51:15.178Z,7.01
2023-05-20T02:52:15.152Z,6.85
2023-05-20T02:53:15.244Z,7.00
2023-05-20T02:54:15.292Z,6.88
2023-05-20T02:55:15.318Z,7.03
2023-05-20T02:56:15.341Z,7.26
2023-05-20T02:57:15.391Z,7.68
2023-05-20T02:58:15.478Z,7.26
2023-05-20T02:59:15.467Z,6.83
2023-05-20T03:00:15.544Z,6.68
2023-05-20T03:01:15.608Z,7.01
2023-05-20T03:02:15.638Z,6.69
2023-05-20T03:03:15.678Z,7.03
2023-05-20T03:04:15.726Z,7.78
2023-05-20T03:05:15.762Z,7.20
2023-05-20T03:06:15.830Z,7.66
2023-05-20T03:07:15.863Z,7.64
2023-05-20T03:08:15.912Z,7.86
2023-05-20T03:09:15.947Z,6.75
2023-05-20T03:10:15.992Z,7.85
2023-05-20T03:11:16.066Z,7.18
2023-05-20T03:12:16.088Z,7.21
2023-05-20T03:13:16.123Z,8.08
2023-05-20T03:14:16.179Z,6.89
2023-05-20T03:15:16.228Z,7.00
2023-05-20T03:16:16.303Z,6.99
2023-05-20T03:17:16.311Z,6.95
2023-05-20T03:18:16.343Z,7.80
2023-05-20T03:19:16.476Z,6.95
2023-05-20T03:20:16.424Z,6.56
2023-05-20T03:21:16.495Z,6.98
2023-05-20T03:22:16.605Z,6.92
2023-05-20T03:23:16.598Z,6.49
2023-05-20T03:24:16.597Z,6.52
2023-05-20T03:25:16.661Z,8.02
2023-05-20T03:26:16.703Z,6.84
2023-05-20T03:27:16.751Z,7.03
2023-05-20T03:28:16.803Z,7.49
2023-05-20T03:29:16.841Z,6.67
2023-05-20T03:30:16.857Z,6.52
2023-05-20T03:31:16.965Z,7.03
2023-05-20T03:32:17.219Z,6.65
2023-05-20T03:33:17.066Z,7.23
2023-05-20T03:34:17.085Z,6.42
2023-05-20T03:35:17.176Z,6.25
2023-05-20T03:36:17.191Z,7.30
2023-05-20T03:37:17.270Z,6.53
2023-05-20T03:38:17.308Z,6.28
2023-05-20T03:39:17.366Z,6.44
2023-05-20T03:40:17.429Z,6.36
2023-05-20T03:41:17.457Z,7.03
2023-05-20T03:42:17.520Z,5.87
2023-05-20T03:43:17.603Z,6.30
2023-05-20T03:44:17.651Z,6.32
2023-05-20T03:45:17.683Z,6.09
2023-05-20T03:46:17.795Z,6.61
2023-05-20T03:47:17.786Z,7.02
2023-05-20T03:48:17.847Z,6.79
2023-05-20T03:49:17.906Z,6.66
2023-05-20T03:50:17.956Z,6.52
2023-05-20T03:51:18.005Z,6.75
2023-05-20T03:52:18.082Z,6.41
2023-05-20T03:53:18.141Z,6.65
2023-05-20T03:54:18.232Z,6.87
2023-05-20T03:55:18.224Z,6.17
2023-05-20T03:56:18.299Z,6.59
2023-05-20T03:57:18.340Z,6.81
2023-05-20T03:58:18.435Z,6.72
2023-05-20T03:59:18.473Z,6.84
2023-05-20T04:00:18.504Z,7.01
2023-05-20T04:01:18.574Z,6.48
2023-05-20T04:02:18.710Z,7.29
2023-05-20T04:03:18.799Z,7.55
2023-05-20T04:04:18.810Z,6.24
2023-05-20T04:05:18.819Z,7.26
2023-05-20T04:06:18.819Z,6.76
2023-05-20T04:07:18.872Z,7.05
2023-05-20T04:08:18.957Z,7.50
2023-05-20T04:09:19.011Z,6.87
2023-05-20T04:10:19.052Z,6.98
2023-05-20T04:11:19.128Z,7.15
2023-05-20T04:12:19.182Z,7.12
2023-05-20T04:13:19.241Z,7.05
2023-05-20T04:14:19.319Z,6.56
2023-05-20T04:15:19.366Z,6.23
2023-05-20T04:16:19.461Z,6.80
2023-05-20T04:17:19.503Z,7.28
2023-05-20T04:18:19.553Z,6.80
2023-05-20T04:19:19.701Z,6.91
2023-05-20T04:20:19.651Z,7.13
2023-05-20T04:21:19.727Z,7.40
2023-05-20T04:22:19.741Z,6.77
2023-05-20T04:23:19.836Z,7.12
2023-05-20T04:24:19.852Z,6.49
2023-05-20T04:25:19.922Z,7.37
2023-05-20T04:26:19.967Z,7.09
2023-05-20T04:27:20.055Z,7.00
2023-05-20T04:28:20.079Z,7.17
2023-05-20T04:29:20.165Z,7.81
2023-05-20T04:30:20.221Z,7.73
2023-05-20T04:31:20.295Z,7.01
2023-05-20T04:32:20.335Z,6.97
2023-05-20T04:33:20.404Z,7.00
2023-05-20T04:34:20.416Z,7.73
2023-05-20T04:35:20.515Z,7.01
2023-05-20T04:36:20.572Z,7.28
2023-05-20T04:37:20.615Z,7.82
2023-05-20T04:38:20.706Z,7.61
2023-05-20T04:39:20.728Z,7.68
2023-05-20T04:40:20.801Z,7.45
2023-05-20T04:41:20.838Z,7.35
2023-05-20T04:42:20.878Z,6.61
2023-05-20T04:43:20.973Z,6.96
2023-05-20T04:44:21.003Z,7.39
2023-05-20T04:45:21.074Z,7.12
2023-05-20T04:46:21.175Z,7.58
2023-05-20T04:47:21.178Z,6.91
2023-05-20T04:48:21.241Z,7.38
2023-05-20T04:49:21.275Z,6.92
2023-05-20T04:50:21.349Z,7.36
2023-05-20T04:51:21.440Z,7.20
2023-05-20T04:52:21.455Z,7.10
2023-05-20T04:53:21.555Z,7.06
2023-05-20T04:54:21.596Z,7.60
2023-05-20T04:55:21.701Z,6.87
2023-05-20T04:56:21.711Z,6.88
2023-05-20T04:57:21.787Z,7.90
2023-05-20T04:58:21.908Z,7.62
2023-05-20T04:59:21.878Z,6.64
2023-05-20T05:00:21.912Z,6.81
2023-05-20T05:01:22.014Z,7.28
2023-05-20T05:02:22.027Z,6.94
2023-05-20T05:03:22.107Z,7.28
2023-05-20T05:04:22.202Z,7.34
2023-05-20T05:05:22.234Z,6.95
2023-05-20T05:06:22.277Z,7.29
2023-05-20T05:07:22.416Z,7.22
2023-05-20T05:08:22.406Z,7.67
2023-05-20T05:09:22.454Z,8.22
2023-05-20T05:10:22.552Z,7.06
2023-05-20T05:11:22.604Z,7.67
2023-05-20T05:12:22.672Z,7.53
2023-05-20T05:13:22.714Z,7.31
2023-05-20T05:14:22.778Z,7.09
2023-05-20T05:15:22.803Z,7.87
2023-05-20T05:16:22.917Z,7.72
2023-05-20T05:17:22.929Z,7.77
2023-05-20T05:18:22.995Z,7.77
2023-05-20T05:19:23.401Z,8.26
2023-05-20T05:20:23.095Z,7.42
2023-05-20T05:21:23.137Z,8.18
2023-05-20T05:22:23.175Z,7.80
2023-05-20T05:23:23.229Z,7.98
2023-05-20T05:24:23.292Z,8.09
2023-05-20T05:25:23.305Z,6.88
2023-05-20T05:26:23.383Z,6.92
2023-05-20T05:27:23.439Z,8.22
2023-05-20T05:28:23.462Z,8.22
2023-05-20T05:29:23.527Z,8.58
2023-05-20T05:30:23.564Z,7.80
2023-05-20T05:31:23.625Z,8.31
2023-05-20T05:32:23.800Z,8.53
2023-05-20T05:33:23.812Z,7.88
2023-05-20T05:34:23.804Z,6.89
2023-05-20T05:35:23.864Z,7.98
2023-05-20T05:36:23.933Z,7.80
2023-05-20T05:37:23.980Z,8.04
2023-05-20T05:38:24.070Z,8.52
2023-05-20T05:39:24.055Z,7.45
2023-05-20T05:40:24.134Z,8.18
2023-05-20T05:41:24.179Z,8.31
2023-05-20T05:42:24.224Z,8.10
2023-05-20T05:43:24.272Z,8.43
2023-05-20T05:44:24.353Z,8.54
2023-05-20T05:45:24.387Z,7.57
2023-05-20T05:46:24.564Z,7.82
2023-05-20T05:47:24.539Z,8.19
2023-05-20T05:48:24.571Z,7.78
2023-05-20T05:49:24.592Z,7.13
2023-05-20T05:50:24.651Z,8.46
2023-05-20T05:51:24.692Z,7.76
2023-05-20T05:52:25.514Z,7.91
2023-05-20T05:53:24.881Z,8.66
2023-05-20T05:54:24.849Z,7.53
2023-05-20T05:55:24.932Z,6.97
2023-05-20T05:56:24.928Z,8.64
2023-05-20T05:57:24.986Z,7.54
2023-05-20T05:58:25.043Z,7.03
2023-05-20T05:59:25.067Z,8.00
2023-05-20T06:00:25.145Z,7.56
2023-05-20T06:01:25.256Z,7.63
2023-05-20T06:02:25.300Z,7.21
2023-05-20T06:03:25.370Z,8.66
2023-05-20T06:04:25.344Z,7.79
2023-05-20T06:05:28.257Z,7.78
2023-05-20T06:06:25.325Z,6.96
2023-05-20T06:07:25.322Z,8.38
2023-05-20T06:08:25.334Z,7.33
2023-05-20T06:09:25.348Z,7.58
2023-05-20T06:10:25.366Z,7.44
2023-05-20T06:11:25.293Z,7.42
2023-05-20T06:12:25.295Z,6.99
2023-05-20T06:13:25.324Z,7.32
2023-05-20T06:14:25.306Z,8.27
2023-05-20T06:15:25.289Z,7.96
2023-05-20T06:16:25.283Z,7.52
2023-05-20T06:17:25.318Z,8.10
2023-05-20T06:18:25.281Z,7.67
2023-05-20T06:19:25.272Z,8.16
2023-05-20T06:20:25.270Z,7.52
2023-05-20T06:21:25.226Z,7.23
2023-05-20T06:22:25.243Z,6.71
2023-05-20T06:23:25.254Z,7.57
2023-05-20T06:24:25.232Z,8.28
2023-05-20T06:25:25.208Z,7.41
2023-05-20T06:26:25.213Z,7.78
2023-05-20T06:27:25.186Z,7.36
2023-05-20T06:28:25.207Z,7.16
2023-05-20T06:29:25.179Z,7.09
2023-05-20T06:30:25.177Z,7.35
2023-05-20T06:31:25.277Z,7.48
2023-05-20T06:32:25.163Z,7.02
2023-05-20T06:33:25.154Z,7.36
2023-05-20T06:34:25.152Z,7.92
2023-05-20T06:35:25.142Z,7.39
2023-05-20T06:36:25.155Z,7.06
2023-05-20T06:37:25.129Z,7.21
2023-05-20T06:38:25.134Z,7.07
2023-05-20T06:39:25.150Z,7.30
2023-05-20T06:40:25.102Z,8.20
2023-05-20T06:41:25.079Z,7.30
2023-05-20T06:42:25.127Z,7.22
2023-05-20T06:43:25.104Z,7.89
2023-05-20T06:44:25.101Z,8.10
2023-05-20T06:45:25.092Z,7.56
2023-05-20T06:46:25.194Z,7.01
2023-05-20T06:47:25.066Z,7.37
2023-05-20T06:48:25.080Z,8.15
2023-05-20T06:49:25.066Z,7.13
2023-05-20T06:50:25.079Z,7.90
2023-05-20T06:51:25.058Z,6.87
2023-05-20T06:52:25.059Z,7.90
2023-05-20T06:53:25.061Z,7.76
2023-05-20T06:54:25.030Z,7.20
2023-05-20T06:55:25.044Z,7.18
2023-05-20T06:56:25.003Z,8.39
2023-05-20T06:57:25.111Z,7.91
2023-05-20T06:58:25.020Z,7.18
2023-05-20T06:59:25.008Z,7.08
2023-05-20T07:00:25.018Z,7.18
2023-05-20T07:01:25.044Z,7.44
2023-05-20T07:02:25.001Z,7.96
2023-05-20T07:03:25.027Z,8.06
2023-05-20T07:04:24.969Z,7.90
2023-05-20T07:05:25.014Z,8.05
2023-05-20T07:06:24.955Z,7.43
2023-05-20T07:07:24.978Z,7.18
2023-05-20T07:08:25.022Z,7.77
2023-05-20T07:09:24.971Z,8.07
2023-05-20T07:10:24.999Z,7.57
2023-05-20T07:11:24.979Z,7.84
2023-05-20T07:12:24.962Z,7.40
2023-05-20T07:13:24.988Z,7.46
2023-05-20T07:14:24.992Z,7.83
2023-05-20T07:15:25.022Z,7.08
2023-05-20T07:16:25.075Z,7.47
2023-05-20T07:17:25.117Z,6.96
2023-05-20T07:18:25.027Z,7.98
2023-05-20T07:19:26.160Z,7.14
2023-05-20T07:20:25.111Z,7.95
2023-05-20T07:21:25.074Z,8.19
2023-05-20T07:22:25.056Z,7.83
2023-05-20T07:23:25.090Z,7.61
2023-05-20T07:24:25.086Z,8.20
2023-05-20T07:25:25.081Z,7.39
2023-05-20T07:26:25.084Z,7.52
2023-05-20T07:27:25.103Z,7.32
2023-05-20T07:28:25.143Z,8.26
2023-05-20T07:29:25.113Z,7.11
2023-05-20T07:30:25.219Z,8.19
2023-05-20T07:31:25.109Z,8.00
2023-05-20T07:32:25.166Z,7.44
2023-05-20T07:33:25.151Z,7.64
2023-05-20T07:34:25.165Z,8.39
2023-05-20T07:35:25.153Z,7.87
2023-05-20T07:36:25.145Z,7.44
2023-05-20T07:37:25.170Z,7.01
2023-05-20T07:38:25.168Z,7.34
2023-05-20T07:39:26.062Z,8.10
2023-05-20T07:40:25.289Z,8.00
2023-05-20T07:41:25.172Z,7.50
2023-05-20T07:42:25.177Z,7.22
2023-05-20T07:43:25.149Z,8.54
2023-05-20T07:44:25.148Z,7.62
2023-05-20T07:45:25.165Z,6.57
2023-05-20T07:46:25.241Z,6.93
2023-05-20T07:47:25.295Z,7.52
2023-05-20T07:48:25.177Z,7.86
2023-05-20T07:49:25.201Z,7.82
2023-05-20T07:50:25.181Z,7.21
2023-05-20T07:51:25.271Z,7.20
2023-05-20T07:52:25.183Z,7.50
2023-05-20T07:53:25.184Z,7.02
2023-05-20T07:54:25.187Z,7.64
2023-05-20T07:55:25.167Z,7.66
2023-05-20T07:56:25.149Z,7.68
2023-05-20T07:57:25.186Z,7.42
2023-05-20T07:58:25.165Z,6.87
2023-05-20T07:59:25.167Z,7.20
2023-05-20T08:00:25.164Z,7.77
2023-05-20T08:01:25.184Z,7.80
2023-05-20T08:02:25.249Z,7.39
2023-05-20T08:03:25.233Z,8.04
2023-05-20T08:04:25.250Z,6.74
2023-05-20T08:05:25.232Z,7.62
2023-05-20T08:06:26.761Z,6.75
2023-05-20T08:07:25.209Z,7.34
2023-05-20T08:08:25.227Z,6.96
2023-05-20T08:09:25.219Z,6.76
2023-05-20T08:10:25.198Z,7.45
2023-05-20T08:11:25.193Z,7.03
2023-05-20T08:12:25.200Z,7.78
2023-05-20T08:13:25.188Z,6.66
2023-05-20T08:14:25.185Z,6.93
2023-05-20T08:15:25.157Z,7.27
2023-05-20T08:16:25.234Z,6.81
2023-05-20T08:17:25.197Z,6.66
2023-05-20T08:18:25.174Z,8.29
2023-05-20T08:19:25.234Z,7.54
2023-05-20T08:20:25.142Z,7.21
2023-05-20T08:21:25.126Z,7.05
2023-05-20T08:22:25.112Z,7.03
2023-05-20T08:23:25.116Z,7.20
2023-05-20T08:24:25.125Z,8.28
2023-05-20T08:25:25.113Z,7.93
2023-05-20T08:26:25.106Z,8.01
2023-05-20T08:27:25.083Z,7.25
2023-05-20T08:28:25.090Z,6.78
2023-05-20T08:29:25.110Z,6.65
2023-05-20T08:30:25.084Z,6.86
2023-05-20T08:31:25.121Z,7.07
2023-05-20T08:32:25.099Z,7.18
2023-05-20T08:33:25.083Z,6.48
2023-05-20T08:34:25.045Z,6.43
2023-05-20T08:35:25.068Z,7.23
2023-05-20T08:36:25.046Z,7.34
2023-05-20T08:37:25.034Z,7.39
2023-05-20T08:38:25.032Z,7.11
2023-05-20T08:39:25.049Z,6.80
2023-05-20T08:40:25.031Z,7.38
2023-05-20T08:41:25.024Z,6.94
2023-05-20T08:42:25.009Z,6.67
2023-05-20T08:43:24.988Z,6.44
2023-05-20T08:44:25.546Z,6.81
2023-05-20T08:45:24.985Z,6.73
2023-05-20T08:46:25.042Z,7.59
2023-05-20T08:47:24.992Z,6.27
2023-05-20T08:48:24.958Z,6.49
2023-05-20T08:49:24.963Z,6.19
2023-05-20T08:50:24.965Z,6.88
2023-05-20T08:51:24.944Z,6.93
2023-05-20T08:52:24.905Z,7.14
2023-05-20T08:53:24.925Z,6.04
2023-05-20T08:54:24.897Z,6.58
2023-05-20T08:55:24.937Z,6.89
2023-05-20T08:56:24.899Z,6.55
2023-05-20T08:57:24.930Z,5.99
2023-05-20T08:58:24.997Z,5.52
2023-05-20T08:59:24.964Z,5.75
2023-05-20T09:00:25.006Z,6.35
2023-05-20T09:01:25.078Z,5.76
2023-05-20T09:02:25.087Z,5.90
2023-05-20T09:03:25.097Z,6.75
2023-05-20T09:04:25.162Z,6.72
2023-05-20T09:05:25.143Z,5.48
2023-05-20T09:06:25.143Z,5.75
2023-05-20T09:07:25.152Z,5.56
2023-05-20T09:08:25.229Z,6.05
2023-05-20T09:09:25.229Z,5.79
2023-05-20T09:10:25.243Z,5.43
2023-05-20T09:11:25.285Z,5.27
2023-05-20T09:12:25.293Z,6.74
2023-05-20T09:13:25.301Z,5.55
2023-05-20T09:14:25.326Z,6.03
2023-05-20T09:15:25.350Z,6.06
2023-05-20T09:16:25.424Z,5.63
2023-05-20T09:17:25.454Z,4.93
2023-05-20T09:18:25.410Z,5.17
2023-05-20T09:19:25.484Z,6.03
2023-05-20T09:20:25.402Z,5.00
2023-05-20T09:21:25.420Z,5.06
2023-05-20T09:22:25.410Z,5.36
2023-05-20T09:23:25.433Z,6.19
2023-05-20T09:24:25.429Z,5.75
2023-05-20T09:25:25.418Z,5.98
2023-05-20T09:26:25.429Z,5.23
2023-05-20T09:27:25.426Z,5.14
2023-05-20T09:28:25.643Z,5.50
2023-05-20T09:29:25.428Z,5.40
2023-05-20T09:30:25.416Z,5.30
2023-05-20T09:31:25.465Z,5.44
2023-05-20T09:32:25.489Z,5.94
2023-05-20T09:33:25.462Z,5.90
2023-05-20T09:34:25.480Z,4.94
2023-05-20T09:35:25.486Z,5.78
2023-05-20T09:36:25.486Z,4.98
2023-05-20T09:37:25.488Z,4.86
2023-05-20T09:38:25.510Z,5.52
2023-05-20T09:39:25.529Z,5.64
2023-05-20T09:40:25.569Z,4.76
2023-05-20T09:41:25.590Z,5.32
2023-05-20T09:42:25.656Z,4.76
2023-05-20T09:43:25.695Z,5.07
2023-05-20T09:44:25.765Z,4.93
2023-05-20T09:45:25.790Z,4.44
2023-05-20T09:46:25.924Z,5.01
2023-05-20T09:47:25.844Z,4.89
2023-05-20T09:48:25.897Z,5.34
2023-05-20T09:49:25.968Z,5.46
2023-05-20T09:50:26.062Z,4.53
2023-05-20T09:51:26.066Z,4.74
2023-05-20T09:52:26.140Z,4.98
2023-05-20T09:53:26.204Z,5.09
2023-05-20T09:54:26.285Z,5.21
2023-05-20T09:55:26.321Z,4.46
2023-05-20T09:56:26.379Z,4.47
2023-05-20T09:57:26.440Z,5.23
2023-05-20T09:58:26.518Z,5.24
2023-05-20T09:59:26.564Z,4.76
2023-05-20T10:00:26.598Z,4.67
2023-05-20T10:01:26.713Z,4.97
2023-05-20T10:02:26.793Z,5.32
2023-05-20T10:03:27.006Z,4.34
2023-05-20T10:04:26.867Z,4.36
2023-05-20T10:05:26.923Z,4.45
2023-05-20T10:06:26.985Z,4.54
2023-05-20T10:07:40.616Z,4.67
2023-05-20T10:08:28.049Z,5.09
2023-05-20T10:09:27.021Z,5.00
2023-05-20T10:10:27.011Z,4.47
2023-05-20T10:11:27.020Z,4.58
2023-05-20T10:12:26.988Z,4.80
2023-05-20T10:13:26.969Z,4.33
2023-05-20T10:14:27.012Z,4.29
2023-05-20T10:15:26.948Z,4.88
2023-05-20T10:16:27.041Z,4.46
2023-05-20T10:17:26.975Z,4.49
2023-05-20T10:18:26.954Z,4.69
2023-05-20T10:19:27.116Z,4.51
2023-05-20T10:20:26.942Z,4.78
2023-05-20T10:21:26.928Z,3.99
2023-05-20T10:22:26.918Z,4.31
2023-05-20T10:23:26.958Z,4.19
2023-05-20T10:24:26.920Z,4.61
2023-05-20T10:25:26.944Z,3.92
2023-05-20T10:26:26.927Z,4.16
2023-05-20T10:27:26.909Z,4.31
2023-05-20T10:28:26.890Z,4.24
2023-05-20T10:29:26.973Z,3.81
2023-05-20T10:30:26.980Z,3.89
2023-05-20T10:31:27.035Z,4.81
2023-05-20T10:32:27.119Z,4.01
2023-05-20T10:33:27.153Z,4.45
2023-05-20T10:34:27.121Z,4.06
2023-05-20T10:35:27.171Z,4.52
2023-05-20T10:36:27.219Z,4.43
2023-05-20T10:37:27.266Z,4.33
2023-05-20T10:38:27.273Z,4.03
2023-05-20T10:39:27.320Z,4.11
2023-05-20T10:40:27.308Z,4.29
2023-05-20T10:41:27.358Z,3.85
2023-05-20T10:42:27.415Z,3.48
2023-05-20T10:43:27.409Z,4.20
2023-05-20T10:44:27.427Z,4.24
2023-05-20T10:45:27.461Z,3.79
2023-05-20T10:46:38.031Z,3.74
2023-05-20T10:47:28.591Z,3.56
2023-05-20T10:48:27.565Z,3.85
2023-05-20T10:49:27.991Z,3.71
2023-05-20T10:50:27.468Z,3.68
2023-05-20T10:51:27.486Z,3.45
2023-05-20T10:52:27.470Z,3.92
2023-05-20T10:53:33.870Z,3.98
2023-05-20T10:54:28.476Z,4.02
2023-05-20T10:55:27.457Z,3.85
2023-05-20T10:56:27.427Z,3.84
2023-05-20T10:57:27.423Z,3.41
2023-05-20T10:58:27.412Z,3.20
2023-05-20T10:59:27.387Z,3.75
2023-05-20T11:00:27.411Z,3.79
2023-05-20T11:01:27.402Z,3.85
2023-05-20T11:02:27.447Z,3.92
2023-05-20T11:03:27.459Z,3.66
2023-05-20T11:04:27.598Z,4.34
2023-05-20T11:05:27.362Z,3.90
2023-05-20T11:06:27.395Z,3.69
2023-05-20T11:07:27.394Z,3.81
2023-05-20T11:08:29.403Z,3.62
2023-05-20T11:09:27.377Z,3.68
2023-05-20T11:10:27.390Z,3.88
2023-05-20T11:11:27.355Z,3.68
2023-05-20T11:12:27.337Z,3.22
2023-05-20T11:13:27.433Z,2.94
2023-05-20T11:14:27.333Z,3.81
2023-05-20T11:15:27.418Z,3.70
2023-05-20T11:16:27.423Z,3.50
2023-05-20T11:17:27.426Z,3.58
2023-05-20T11:18:28.521Z,3.26
2023-05-20T11:19:27.586Z,3.57
2023-05-20T11:20:27.463Z,3.44
2023-05-20T11:21:27.445Z,3.22
2023-05-20T11:22:27.474Z,3.49
2023-05-20T11:23:27.448Z,3.26
2023-05-20T11:24:27.477Z,3.25
2023-05-20T11:25:27.437Z,2.99
2023-05-20T11:26:27.441Z,3.30
2023-05-20T11:27:27.503Z,3.51
2023-05-20T11:28:27.485Z,3.43
2023-05-20T11:29:27.477Z,3.28
2023-05-20T11:30:27.468Z,3.76
2023-05-20T11:31:27.480Z,3.61
2023-05-20T11:32:27.524Z,3.17
2023-05-20T11:33:27.506Z,3.59
2023-05-20T11:34:29.289Z,3.11
2023-05-20T11:35:27.506Z,2.67
2023-05-20T11:36:28.338Z,3.02
2023-05-20T11:37:27.515Z,3.28
2023-05-20T11:38:27.533Z,3.40
2023-05-20T11:39:27.555Z,2.94
2023-05-20T11:40:35.655Z,3.19
2023-05-20T11:41:28.547Z,3.35
2023-05-20T11:42:27.532Z,3.44
2023-05-20T11:43:27.501Z,3.41
2023-05-20T11:44:27.510Z,3.17
2023-05-20T11:45:27.489Z,2.91
2023-05-20T11:46:27.539Z,2.80
2023-05-20T11:47:27.539Z,2.85
2023-05-20T11:48:27.495Z,3.02
2023-05-20T11:49:27.475Z,3.42
2023-05-20T11:50:27.452Z,2.85
2023-05-20T11:51:27.475Z,2.57
2023-05-20T11:52:27.472Z,3.22
2023-05-20T11:53:27.429Z,2.90
2023-05-20T11:54:27.443Z,3.20
2023-05-20T11:55:27.435Z,3.05
2023-05-20T11:56:27.444Z,2.88
2023-05-20T11:57:27.428Z,2.90
2023-05-20T11:58:27.440Z,2.86
2023-05-20T11:59:27.395Z,3.21
2023-05-20T12:00:29.379Z,3.76
2023-05-20T12:01:28.602Z,3.56
2023-05-20T12:02:27.450Z,3.29
2023-05-20T12:03:27.516Z,2.95
2023-05-20T12:04:27.391Z,3.34
2023-05-20T12:05:27.361Z,3.25
2023-05-20T12:06:27.373Z,4.01
2023-05-20T12:07:27.354Z,3.32
2023-05-20T12:08:27.360Z,3.28
2023-05-20T12:09:27.325Z,3.46
2023-05-20T12:10:27.340Z,2.92
2023-05-20T12:11:27.337Z,3.01
2023-05-20T12:12:27.349Z,3.17
2023-05-20T12:13:27.328Z,2.84
2023-05-20T12:14:27.309Z,3.66
2023-05-20T12:15:27.329Z,3.61
2023-05-20T12:16:27.371Z,3.34
2023-05-20T12:17:27.363Z,3.35
2023-05-20T12:18:27.272Z,3.15
2023-05-20T12:19:27.373Z,3.44
2023-05-20T12:20:27.300Z,3.50
2023-05-20T12:21:27.291Z,3.16
2023-05-20T12:22:27.258Z,3.86
2023-05-20T12:23:27.268Z,3.35
2023-05-20T12:24:27.252Z,3.53
2023-05-20T12:25:27.220Z,3.37
2023-05-20T12:26:27.316Z,3.11
2023-05-20T12:27:27.219Z,3.78
2023-05-20T12:28:27.227Z,3.37
2023-05-20T12:29:27.221Z,3.63
2023-05-20T12:30:27.223Z,3.41
2023-05-20T12:31:27.248Z,3.06
2023-05-20T12:32:27.258Z,3.43
2023-05-20T12:33:27.194Z,3.23
2023-05-20T12:34:27.220Z,2.98
2023-05-20T12:35:28.101Z,3.17
2023-05-20T12:36:27.179Z,3.73
2023-05-20T12:37:27.169Z,3.81
2023-05-20T12:38:27.165Z,3.36
2023-05-20T12:39:27.151Z,3.52
2023-05-20T12:40:27.132Z,3.42
2023-05-20T12:41:27.143Z,3.78
2023-05-20T12:42:27.106Z,3.70
2023-05-20T12:43:27.110Z,3.24
2023-05-20T12:44:27.130Z,3.19
2023-05-20T12:45:27.079Z,3.31
2023-05-20T12:46:27.111Z,3.26
2023-05-20T12:47:27.133Z,3.56
2023-05-20T12:48:27.091Z,3.26
2023-05-20T12:49:27.088Z,3.25
2023-05-20T12:50:27.064Z,3.59
2023-05-20T12:51:27.053Z,3.14
2023-05-20T12:52:27.068Z,3.20
2023-05-20T12:53:27.060Z,3.30
2023-05-20T12:54:27.031Z,3.20
2023-05-20T12:55:27.054Z,3.66
2023-05-20T12:56:27.037Z,3.71
2023-05-20T12:57:27.026Z,3.72
2023-05-20T12:58:27.040Z,3.22
2023-05-20T12:59:27.061Z,3.66
2023-05-20T13:00:27.057Z,4.02
2023-05-20T13:01:27.069Z,3.56
2023-05-20T13:02:27.103Z,3.61
2023-05-20T13:03:27.085Z,3.57
2023-05-20T13:04:27.088Z,4.49
2023-05-20T13:05:27.110Z,3.54
2023-05-20T13:06:27.088Z,3.28
2023-05-20T13:07:27.070Z,3.18
2023-05-20T13:08:28.722Z,3.57
2023-05-20T13:09:27.137Z,4.03
2023-05-20T13:10:27.179Z,3.39
2023-05-20T13:11:27.203Z,3.96
2023-05-20T13:12:27.228Z,3.81
2023-05-20T13:13:27.206Z,3.19
2023-05-20T13:14:27.255Z,4.23
2023-05-20T13:15:27.258Z,3.69
2023-05-20T13:16:27.345Z,4.41
2023-05-20T13:17:27.460Z,4.07
2023-05-20T13:18:27.374Z,4.02